Time;durP1;ratioP1;P1;durP2;ratioP2;P2;SDS_P1;SDS_P2;PMS_P1;PMS_P2;Temp;Humidity;BMP_temperature;BMP_pressure;BME280_temperature;BME280_humidity;BME280_pressure;Samples;Min_cycle;Max_cycle;Signal;HPM_P1;HPM_P2
2022/03/18 00:38:38;;;;;;;25.98;18.38;;;9.60;99.90;;;;;;5817907;24;20855;-87
2022/03/18 01:36:51;;;;;;;;;;;;;;;;;;;;;
2022/03/18 02:42:45;;;;;;;18.65;12.98;;;9.50;99.90;;;;;;6025784;23;20181;-87
2022/03/18 02:52:47;;;;;;;21.40;14.27;;;9.20;99.90;;;;;;5958454;24;20188;-86
2022/03/18 04:10:03;;;;;;;;;;;;;;;;;;;;;
2022/03/18 04:52:55;;;;;;;22.67;13.77;;;9.10;99.90;;;;;;6216220;23;20216;-86
2022/03/18 05:01:41;;;;;;;20.37;13.83;;;9.40;99.90;;;;;;6214336;22;20221;-86
2022/03/18 05:04:19;;;;;;;21.08;12.70;;;9.30;99.90;;;;;;6223475;23;20543;-87
2022/03/18 05:06:53;;;;;;;19.27;14.00;;;9.30;99.90;;;;;;6225545;23;20197;-87
2022/03/18 05:09:25;;;;;;;24.25;14.23;;;9.20;99.90;;;;;;6227009;23;20373;-87
2022/03/18 05:11:57;;;;;;;18.60;12.07;;;9.20;99.90;;;;;;6224530;23;20278;-87
2022/03/18 05:14:28;;;;;;;23.63;14.55;;;9.20;99.90;;;;;;6226414;23;20751;-87
2022/03/18 05:17:12;;;;;;;19.67;12.13;;;9.00;99.90;;;;;;6227448;23;20178;-87
2022/03/18 05:19:43;;;;;;;20.00;12.83;;;9.10;99.90;;;;;;6228182;23;20166;-87
2022/03/18 05:22:18;;;;;;;21.63;14.50;;;9.10;99.90;;;;;;6238658;23;20402;-87
2022/03/18 05:24:54;;;;;;;22.60;15.32;;;9.10;99.90;;;;;;6229205;23;20182;-87
2022/03/18 05:27:21;;;;;;;111.13;58.57;;;9.10;99.90;;;;;;6222492;23;20169;-87
2022/03/18 05:29:53;;;;;;;17.63;11.02;;;9.10;99.90;;;;;;6226143;23;20394;-87
2022/03/18 05:32:25;;;;;;;27.05;19.73;;;9.10;99.90;;;;;;6224804;23;20178;-87
2022/03/18 05:35:01;;;;;;;23.15;14.43;;;9.10;99.90;;;;;;6224074;23;20181;-86
2022/03/18 05:37:45;;;;;;;29.30;17.88;;;9.00;99.90;;;;;;6222788;23;20186;-86
2022/03/18 05:40:35;;;;;;;25.15;16.83;;;9.00;99.90;;;;;;6231860;23;20202;-87
2022/03/18 05:43:05;;;;;;;19.77;14.25;;;9.00;99.90;;;;;;6226000;23;20178;-86
2022/03/18 05:45:35;;;;;;;23.17;14.65;;;9.00;99.90;;;;;;6224630;23;20254;-86
2022/03/18 05:48:08;;;;;;;23.80;14.02;;;9.10;99.90;;;;;;6228257;23;20185;-86
2022/03/18 05:50:37;;;;;;;20.90;12.15;;;9.00;99.90;;;;;;6219784;23;20202;-86
2022/03/18 05:53:16;;;;;;;21.85;14.07;;;9.00;99.90;;;;;;6219313;23;20189;-86
2022/03/18 05:58:33;;;;;;;21.90;13.25;;;8.90;99.90;;;;;;6222442;23;20205;-86
2022/03/18 06:06:47;;;;;;;22.57;14.57;;;9.00;99.90;;;;;;6156073;23;20183;-86
2022/03/18 06:12:19;;;;;;;25.40;16.03;;;8.90;99.90;;;;;;6154146;23;20196;-86
2022/03/18 06:14:49;;;;;;;23.73;15.63;;;9.00;99.90;;;;;;6237040;23;20410;-86
2022/03/18 06:17:16;;;;;;;26.03;16.00;;;9.00;99.90;;;;;;6230558;23;20836;-86
2022/03/18 06:19:43;;;;;;;19.10;12.80;;;9.00;99.90;;;;;;6225640;23;20417;-86
2022/03/18 06:25:15;;;;;;;24.27;16.23;;;9.00;99.90;;;;;;6226777;23;20182;-86
2022/03/18 06:27:47;;;;;;;27.77;17.55;;;9.10;99.90;;;;;;6231664;23;20180;-85
2022/03/18 06:30:16;;;;;;;26.87;16.57;;;9.10;99.90;;;;;;6241785;23;20221;-85
2022/03/18 06:32:43;;;;;;;30.07;17.53;;;9.10;99.90;;;;;;6238881;23;20432;-87
2022/03/18 06:35:16;;;;;;;26.63;13.80;;;9.00;99.90;;;;;;6232373;23;20433;-87
2022/03/18 06:37:49;;;;;;;23.23;14.90;;;9.00;99.90;;;;;;6235579;23;20193;-87
2022/03/18 06:43:31;;;;;;;21.52;13.18;;;9.10;99.90;;;;;;6216134;23;20426;-87
2022/03/18 06:46:23;;;;;;;27.43;17.23;;;9.10;99.90;;;;;;6231171;23;20232;-87
2022/03/18 06:48:58;;;;;;;26.33;16.73;;;9.10;99.90;;;;;;6229010;23;20424;-87
2022/03/18 06:51:25;;;;;;;31.23;19.73;;;9.20;99.90;;;;;;6224820;23;20444;-87
2022/03/18 06:53:55;;;;;;;27.52;19.67;;;9.20;99.90;;;;;;6235493;23;20609;-86
2022/03/18 06:56:27;;;;;;;28.67;19.05;;;9.20;99.90;;;;;;6227178;23;20182;-87
2022/03/18 06:59:01;;;;;;;30.57;18.53;;;9.20;99.90;;;;;;6223037;23;20241;-86
2022/03/18 07:01:34;;;;;;;28.55;19.35;;;9.20;99.90;;;;;;6227765;23;20490;-86
2022/03/18 07:04:05;;;;;;;26.92;17.90;;;9.20;99.90;;;;;;6227602;23;20224;-86
2022/03/18 07:14:17;;;;;;;;;;;;;;;;;;;;;
2022/03/18 07:20:09;;;;;;;32.50;20.25;;;9.50;99.90;;;;;;6190785;23;20420;-86
2022/03/18 07:22:47;;;;;;;33.92;20.95;;;9.60;99.90;;;;;;6222489;23;20174;-86
2022/03/18 07:25:22;;;;;;;34.78;22.73;;;9.50;99.90;;;;;;6230082;23;20181;-85
2022/03/18 07:40:55;;;;;;;36.50;24.50;;;9.40;99.90;;;;;;6234068;23;20194;-85
2022/03/18 07:44:10;;;;;;;38.87;25.10;;;9.50;99.90;;;;;;6231389;23;20576;-85
2022/03/18 07:50:12;;;;;;;37.10;23.50;;;9.80;99.90;;;;;;6178836;23;20408;-86
2022/03/18 07:56:54;;;;;;;38.83;25.50;;;10.00;99.90;;;;;;6227606;23;20472;-85
2022/03/18 08:00:03;;;;;;;36.37;24.50;;;10.10;99.90;;;;;;6225769;23;20447;-85
2022/03/18 08:03:02;;;;;;;36.27;21.27;;;9.70;99.90;;;;;;6227919;23;20437;-85
2022/03/18 08:05:40;;;;;;;37.07;23.17;;;9.80;99.90;;;;;;6225674;23;20425;-85
2022/03/18 08:08:18;;;;;;;32.63;21.30;;;9.80;99.90;;;;;;6238789;23;20389;-85
2022/03/18 08:11:14;;;;;;;39.70;23.00;;;9.80;99.90;;;;;;6235046;23;20443;-85
2022/03/18 08:14:22;;;;;;;35.97;25.40;;;9.80;99.90;;;;;;6211961;23;20420;-84
2022/03/18 08:19:27;;;;;;;59.60;34.78;;;9.60;99.90;;;;;;6201385;22;20223;-85
2022/03/18 08:22:07;;;;;;;78.33;36.00;;;9.60;99.90;;;;;;6216630;23;20206;-83
2022/03/18 08:30:15;;;;;;;46.90;27.63;;;10.00;99.90;;;;;;6194888;23;20229;-84
2022/03/18 08:33:26;;;;;;;45.63;29.10;;;10.10;99.90;;;;;;6199232;23;20615;-85
2022/03/18 08:36:18;;;;;;;34.27;24.57;;;10.10;99.90;;;;;;6197691;23;20418;-86
2022/03/18 08:39:02;;;;;;;36.53;25.03;;;10.20;99.90;;;;;;6198459;23;20577;-85
2022/03/18 08:42:12;;;;;;;39.57;26.67;;;10.30;99.90;;;;;;6199293;23;20438;-86
2022/03/18 08:45:30;;;;;;;;;;;;;;;;;;;;;
2022/03/18 08:51:28;;;;;;;30.87;19.83;;;10.20;99.90;;;;;;6176306;23;20429;-85
2022/03/18 08:54:38;;;;;;;;;;;;;;;;;;;;;
2022/03/18 08:57:19;;;;;;;39.77;25.93;;;10.20;99.90;;;;;;6202138;23;20412;-86
2022/03/18 09:02:50;;;;;;;35.00;25.20;;;10.30;99.90;;;;;;6241347;22;20521;-86
2022/03/18 09:07:54;;;;;;;33.00;22.23;;;10.20;99.90;;;;;;6236070;23;20407;-87
2022/03/18 09:10:26;;;;;;;36.30;23.60;;;10.30;99.90;;;;;;6208451;22;20437;-87
2022/03/18 09:12:58;;;;;;;35.50;23.20;;;10.30;99.90;;;;;;6210201;23;20887;-88
2022/03/18 09:15:27;;;;;;;30.97;19.03;;;10.40;99.90;;;;;;6226396;23;20410;-88
2022/03/18 09:17:54;;;;;;;34.40;21.03;;;10.50;99.90;;;;;;6228202;23;20397;-86
2022/03/18 09:20:22;;;;;;;16.83;11.33;;;10.50;99.90;;;;;;6229189;23;20511;-86
2022/03/18 09:22:49;;;;;;;23.80;11.43;;;10.50;99.90;;;;;;6227098;23;20980;-87
2022/03/18 09:25:23;;;;;;;29.73;18.07;;;10.00;99.90;;;;;;6223322;23;20376;-85
2022/03/18 09:27:53;;;;;;;28.30;15.20;;;9.90;99.90;;;;;;6221550;23;20474;-86
2022/03/18 09:30:20;;;;;;;39.27;24.73;;;9.90;99.90;;;;;;6222728;23;20500;-85
2022/03/18 09:32:47;;;;;;;30.27;17.00;;;9.90;99.90;;;;;;6223067;23;20422;-86
2022/03/18 09:35:16;;;;;;;32.20;21.97;;;10.00;99.90;;;;;;6224341;23;20417;-86
2022/03/18 09:37:50;;;;;;;25.13;14.07;;;10.00;99.90;;;;;;6224327;23;20496;-86
2022/03/18 09:40:18;;;;;;;38.97;20.97;;;10.10;99.90;;;;;;6231165;23;20257;-88
2022/03/18 09:43:02;;;;;;;22.63;12.67;;;10.00;99.90;;;;;;6235554;23;20404;-87
2022/03/18 09:45:53;;;;;;;38.83;23.20;;;10.10;99.90;;;;;;6228386;23;20401;-86
2022/03/18 09:48:23;;;;;;;84.07;38.03;;;10.00;99.90;;;;;;6230435;23;20777;-88
2022/03/18 09:50:56;;;;;;;46.40;28.40;;;10.00;99.90;;;;;;6231678;23;20453;-86
2022/03/18 09:59:06;;;;;;;30.13;21.00;;;10.40;99.90;;;;;;6220536;23;20449;-87
2022/03/18 10:01:34;;;;;;;31.10;19.97;;;10.50;99.90;;;;;;6227838;23;20509;-86
2022/03/18 10:07:21;;;;;;;27.63;13.77;;;10.80;99.90;;;;;;6220676;23;20465;-86
2022/03/18 10:09:51;;;;;;;32.30;21.43;;;10.50;99.90;;;;;;6224158;23;20394;-87
2022/03/18 10:12:34;;;;;;;26.27;15.93;;;10.40;99.90;;;;;;6232835;23;20468;-87
2022/03/18 10:15:12;;;;;;;38.37;24.03;;;10.50;99.90;;;;;;6235483;23;20394;-85
2022/03/18 10:18:00;;;;;;;35.67;23.43;;;10.50;99.90;;;;;;6230418;23;20356;-87
2022/03/18 10:20:50;;;;;;;28.70;17.90;;;10.70;99.90;;;;;;6224358;23;20435;-88
2022/03/18 10:23:26;;;;;;;21.17;11.37;;;10.90;99.90;;;;;;6223549;23;20726;-87
2022/03/18 10:25:59;;;;;;;40.00;19.90;;;10.60;99.90;;;;;;6223626;23;20417;-86
2022/03/18 10:28:54;;;;;;;32.33;19.97;;;10.60;99.90;;;;;;6223563;23;20471;-88
2022/03/18 10:31:46;;;;;;;39.63;22.63;;;10.50;99.90;;;;;;6225016;23;20467;-88
2022/03/18 10:37:46;;;;;;;40.37;23.47;;;10.90;99.90;;;;;;6223960;23;20401;-89
2022/03/18 10:40:53;;;;;;;23.93;16.00;;;11.10;99.90;;;;;;6226651;23;20958;-88
2022/03/18 10:43:55;;;;;;;33.97;21.27;;;11.20;99.90;;;;;;6182814;23;20431;-87
2022/03/18 10:46:28;;;;;;;30.37;17.93;;;11.10;99.90;;;;;;6227002;23;20416;-87
2022/03/18 10:49:17;;;;;;;30.97;18.53;;;10.90;99.90;;;;;;6227970;23;20412;-87
2022/03/18 10:52:03;;;;;;;35.93;21.73;;;10.80;99.90;;;;;;6222711;23;20437;-86
2022/03/18 10:54:53;;;;;;;38.03;23.07;;;10.90;99.90;;;;;;6222266;23;20421;-88
2022/03/18 10:57:25;;;;;;;41.90;20.97;;;10.80;99.90;;;;;;6221210;23;20916;-87
2022/03/18 11:00:16;;;;;;;46.63;25.03;;;11.10;99.90;;;;;;6225309;23;20457;-88
2022/03/18 11:02:58;;;;;;;34.10;20.40;;;11.30;99.90;;;;;;6225675;23;20406;-88
2022/03/18 11:05:51;;;;;;;29.67;15.90;;;11.40;99.90;;;;;;6222822;23;20983;-87
2022/03/18 11:08:54;;;;;;;34.23;23.53;;;11.20;99.90;;;;;;6223053;23;20408;-88
2022/03/18 12:57:57;;;;;;;32.00;22.77;;;12.30;99.90;;;;;;6199035;22;20458;-87
2022/03/18 17:10:55;;;;;;;31.97;23.67;;;12.20;99.90;;;;;;6181182;22;20449;-86
2022/03/18 17:13:28;;;;;;;29.57;22.17;;;12.10;99.90;;;;;;6196257;23;20410;-87
2022/03/18 17:15:57;;;;;;;32.27;22.07;;;12.10;99.90;;;;;;6195928;23;20398;-87
2022/03/18 17:18:25;;;;;;;33.83;24.03;;;12.00;99.90;;;;;;6196032;23;20735;-86
2022/03/18 17:20:54;;;;;;;30.40;21.90;;;12.10;99.90;;;;;;6195584;23;20516;-87
2022/03/18 17:23:21;;;;;;;30.67;23.77;;;12.10;99.90;;;;;;6198140;23;20399;-86
2022/03/18 17:25:48;;;;;;;34.70;24.20;;;12.20;99.90;;;;;;6197490;23;20421;-86
2022/03/18 17:28:17;;;;;;;31.80;24.77;;;12.20;99.90;;;;;;6204094;23;20365;-87
2022/03/18 17:30:44;;;;;;;30.57;19.90;;;12.10;99.90;;;;;;6211378;23;20410;-86
2022/03/18 17:33:11;;;;;;;35.33;25.07;;;12.20;99.90;;;;;;6212824;23;20398;-88
2022/03/18 17:35:38;;;;;;;32.93;22.67;;;12.10;99.90;;;;;;6206446;23;20409;-88
2022/03/18 17:38:05;;;;;;;37.70;24.30;;;12.10;99.90;;;;;;6203581;23;20493;-88
2022/03/18 17:40:35;;;;;;;32.43;24.93;;;12.00;99.90;;;;;;6206369;23;20408;-87
2022/03/18 17:43:02;;;;;;;33.27;25.33;;;12.10;99.90;;;;;;6200172;23;20433;-87
2022/03/18 17:45:34;;;;;;;34.57;24.60;;;11.90;99.90;;;;;;6198277;23;20549;-88
2022/03/18 17:48:02;;;;;;;32.17;23.87;;;11.90;99.90;;;;;;6200204;23;20391;-87
2022/03/18 17:50:35;;;;;;;34.10;26.50;;;12.00;99.90;;;;;;6198607;23;20444;-86
2022/03/18 17:53:02;;;;;;;27.10;18.47;;;11.90;99.90;;;;;;6199122;23;20528;-87
2022/03/18 17:55:35;;;;;;;30.80;23.20;;;11.90;99.90;;;;;;6196608;23;20447;-87
2022/03/18 18:00:44;;;;;;;33.30;22.30;;;11.80;99.90;;;;;;6198187;23;20428;-87
2022/03/18 18:03:12;;;;;;;32.77;24.43;;;11.70;99.90;;;;;;6196536;23;20423;-87
2022/03/18 18:05:39;;;;;;;25.37;16.50;;;11.50;99.90;;;;;;6197841;23;20411;-87
2022/03/18 18:08:06;;;;;;;33.10;22.03;;;11.50;99.90;;;;;;6198585;23;20385;-87
2022/03/18 18:10:36;;;;;;;28.20;14.90;;;11.50;99.90;;;;;;6199561;23;20490;-87
2022/03/18 18:13:06;;;;;;;36.40;25.00;;;11.40;99.90;;;;;;6195695;23;20478;-88
2022/03/18 18:15:40;;;;;;;36.77;24.63;;;11.40;99.90;;;;;;6197863;23;20472;-87
2022/03/18 18:18:09;;;;;;;34.13;22.60;;;11.30;99.90;;;;;;6203726;23;20409;-88
2022/03/18 18:23:26;;;;;;;41.23;28.37;;;11.20;99.90;;;;;;6129094;23;20439;-88
2022/03/18 18:25:57;;;;;;;39.60;26.80;;;11.40;99.90;;;;;;6206593;23;20395;-87
2022/03/18 18:28:26;;;;;;;36.90;26.07;;;11.40;99.90;;;;;;6203360;23;20421;-88
2022/03/18 18:30:53;;;;;;;40.00;27.40;;;11.30;99.90;;;;;;6202241;23;20422;-88
2022/03/18 18:33:22;;;;;;;32.27;19.33;;;11.40;99.90;;;;;;6201726;23;20416;-87
2022/03/18 18:35:51;;;;;;;44.97;26.73;;;11.40;99.90;;;;;;6202204;23;20457;-88
2022/03/18 18:38:18;;;;;;;37.27;25.20;;;11.30;99.90;;;;;;6202617;23;20384;-87
2022/03/18 18:40:46;;;;;;;38.93;26.20;;;11.30;99.90;;;;;;6203886;23;20413;-88
2022/03/18 18:43:14;;;;;;;38.67;27.13;;;11.30;99.90;;;;;;6202571;23;20429;-87
2022/03/18 18:45:41;;;;;;;41.70;26.33;;;11.00;99.90;;;;;;6195807;23;20413;-87
2022/03/18 18:48:09;;;;;;;39.10;27.60;;;11.00;99.90;;;;;;6197298;23;20438;-87
2022/03/18 18:50:38;;;;;;;44.63;29.47;;;11.00;99.90;;;;;;6196069;23;20514;-88
2022/03/18 18:53:07;;;;;;;38.33;27.80;;;10.90;99.90;;;;;;6195512;23;20861;-86
2022/03/18 18:55:34;;;;;;;39.90;28.83;;;10.90;99.90;;;;;;6194842;23;20445;-86
2022/03/18 18:58:01;;;;;;;38.07;21.63;;;10.90;99.90;;;;;;6196159;23;20424;-87
2022/03/18 19:00:29;;;;;;;38.57;30.20;;;10.90;99.90;;;;;;6198027;23;20446;-87
2022/03/18 19:02:57;;;;;;;47.30;30.83;;;10.80;99.90;;;;;;6197983;23;20441;-87
2022/03/18 19:05:26;;;;;;;37.30;24.07;;;10.90;99.90;;;;;;6196800;23;20517;-87
2022/03/18 19:07:54;;;;;;;50.00;30.02;;;10.90;99.90;;;;;;6196959;23;20869;-88
2022/03/18 19:10:21;;;;;;;40.73;29.10;;;10.80;99.90;;;;;;6196226;23;20200;-88
2022/03/18 19:12:49;;;;;;;41.63;25.30;;;10.70;99.90;;;;;;6196546;23;20944;-86
2022/03/18 19:15:17;;;;;;;42.03;29.23;;;10.80;99.90;;;;;;6198617;23;20391;-87
2022/03/18 19:17:45;;;;;;;46.53;29.43;;;10.70;99.90;;;;;;6198796;23;20335;-86
2022/03/18 19:20:13;;;;;;;39.97;25.17;;;10.80;99.90;;;;;;6207418;23;20442;-87
2022/03/18 19:22:41;;;;;;;45.97;27.47;;;10.70;99.90;;;;;;6198996;23;20776;-86
2022/03/18 19:25:10;;;;;;;48.63;30.30;;;10.60;99.90;;;;;;6200022;23;20406;-87
2022/03/18 19:27:37;;;;;;;31.70;19.60;;;10.60;99.90;;;;;;6198757;23;20410;-86
2022/03/18 19:30:10;;;;;;;47.27;31.83;;;10.50;99.90;;;;;;6198411;23;20406;-87
2022/03/18 19:32:41;;;;;;;48.50;29.90;;;10.40;99.90;;;;;;6197148;23;20434;-87
2022/03/18 19:35:10;;;;;;;48.60;33.70;;;10.40;99.90;;;;;;6196202;23;20425;-88
2022/03/18 19:37:39;;;;;;;49.10;33.23;;;10.40;99.90;;;;;;6201608;23;20398;-86
2022/03/18 19:40:10;;;;;;;44.33;31.83;;;10.40;99.90;;;;;;6198592;23;20442;-87
2022/03/18 19:42:43;;;;;;;48.67;32.30;;;10.30;99.90;;;;;;6200558;23;20414;-87
2022/03/18 19:45:11;;;;;;;37.40;24.60;;;10.30;99.90;;;;;;6199377;23;20746;-87
2022/03/18 19:47:40;;;;;;;48.03;33.88;;;10.20;99.90;;;;;;6199531;23;20186;-86
2022/03/18 19:50:09;;;;;;;47.63;32.25;;;10.20;99.90;;;;;;6206528;23;20258;-87
2022/03/18 19:52:39;;;;;;;43.43;26.80;;;10.20;99.90;;;;;;6200951;23;20221;-87
2022/03/18 19:55:09;;;;;;;39.37;21.67;;;10.20;99.90;;;;;;6203141;23;20421;-87
2022/03/18 20:03:06;;;;;;;56.58;35.22;;;10.00;99.90;;;;;;6197640;23;20226;-85
2022/03/18 20:05:34;;;;;;;50.20;33.67;;;10.00;99.90;;;;;;6198505;23;20197;-86
2022/03/18 20:08:04;;;;;;;49.40;33.83;;;9.90;99.90;;;;;;6200665;23;20889;-88
2022/03/18 20:10:35;;;;;;;49.95;34.40;;;9.90;99.90;;;;;;6200791;23;20727;-86
2022/03/18 20:13:02;;;;;;;37.78;20.55;;;9.90;99.90;;;;;;6198991;23;20167;-86
2022/03/18 20:15:30;;;;;;;45.40;27.90;;;9.90;99.90;;;;;;6198604;23;20183;-88
2022/03/18 20:17:57;;;;;;;45.78;30.23;;;9.80;99.90;;;;;;6200525;23;20179;-87
2022/03/18 20:20:24;;;;;;;41.63;27.92;;;9.70;99.90;;;;;;6210880;23;20241;-86
2022/03/18 20:22:51;;;;;;;50.25;34.42;;;9.70;99.90;;;;;;6213225;23;20178;-87
2022/03/18 20:25:23;;;;;;;52.78;32.20;;;9.60;99.90;;;;;;6211239;23;20179;-86
2022/03/18 20:27:51;;;;;;;52.78;36.05;;;9.80;99.90;;;;;;6208726;23;20167;-87
2022/03/18 20:30:19;;;;;;;43.15;27.50;;;9.70;99.90;;;;;;6212425;23;20178;-85
2022/03/18 20:32:49;;;;;;;52.50;34.20;;;9.70;99.90;;;;;;6204682;23;20198;-87
2022/03/18 20:35:17;;;;;;;52.07;33.97;;;9.60;99.90;;;;;;6200685;23;20377;-87
2022/03/18 20:37:48;;;;;;;45.77;28.27;;;9.60;99.90;;;;;;6210073;23;20413;-87
2022/03/18 20:40:18;;;;;;;45.63;32.00;;;9.70;99.90;;;;;;6203892;23;20426;-87
2022/03/18 20:42:47;;;;;;;46.80;33.75;;;9.60;99.90;;;;;;6210626;23;20203;-87
2022/03/18 20:45:16;;;;;;;46.23;27.60;;;9.50;99.90;;;;;;6201350;23;20179;-88
2022/03/18 20:47:44;;;;;;;48.88;34.25;;;9.60;99.90;;;;;;6200290;23;20402;-87
2022/03/18 20:50:12;;;;;;;46.42;27.98;;;9.50;99.90;;;;;;6201235;23;20179;-88
2022/03/18 20:52:41;;;;;;;47.80;32.20;;;9.50;99.90;;;;;;6200587;23;20681;-87
2022/03/18 20:55:09;;;;;;;47.47;33.00;;;9.50;99.90;;;;;;6199789;23;20611;-87
2022/03/18 20:57:36;;;;;;;49.70;34.17;;;9.50;99.90;;;;;;6200252;23;20634;-87
2022/03/18 21:00:06;;;;;;;49.92;33.85;;;9.50;99.90;;;;;;6197839;23;20179;-87
2022/03/18 21:02:34;;;;;;;49.05;29.55;;;9.50;99.90;;;;;;6200019;23;20199;-87
2022/03/18 21:05:02;;;;;;;59.55;37.55;;;9.60;99.90;;;;;;6200514;23;20175;-87
2022/03/18 21:07:30;;;;;;;50.88;35.20;;;9.50;99.90;;;;;;6205222;23;20523;-87
2022/03/18 21:09:57;;;;;;;51.92;36.95;;;9.40;99.90;;;;;;6207007;23;20183;-87
2022/03/18 21:12:24;;;;;;;49.47;34.53;;;9.40;99.90;;;;;;6209886;23;20202;-87
2022/03/18 21:14:53;;;;;;;52.53;35.10;;;9.40;99.90;;;;;;6201385;23;20230;-87
2022/03/18 21:17:25;;;;;;;57.20;36.23;;;9.30;99.90;;;;;;6201930;23;20422;-87
2022/03/18 21:20:08;;;;;;;52.30;36.10;;;9.20;99.90;;;;;;6208625;23;20454;-87
2022/03/18 21:22:38;;;;;;;51.60;36.17;;;9.30;99.90;;;;;;6200412;23;20728;-86
2022/03/18 21:25:07;;;;;;;51.72;34.30;;;9.20;99.90;;;;;;6199603;23;20193;-86
2022/03/18 21:30:43;;;;;;;48.83;33.65;;;9.30;99.90;;;;;;6133002;23;20182;-86
2022/03/18 21:33:18;;;;;;;49.13;33.10;;;9.20;99.90;;;;;;6201088;23;20171;-87
2022/03/18 21:35:54;;;;;;;53.88;34.88;;;9.40;99.90;;;;;;6203269;23;20182;-87
2022/03/18 21:38:21;;;;;;;53.10;32.90;;;9.30;99.90;;;;;;6203666;23;20234;-86
2022/03/18 21:40:49;;;;;;;40.00;22.50;;;9.20;99.90;;;;;;6201984;23;20477;-86
2022/03/18 21:43:25;;;;;;;50.95;33.30;;;9.30;99.90;;;;;;6201684;23;20424;-87
2022/03/18 21:45:57;;;;;;;54.70;34.72;;;9.30;99.90;;;;;;6206122;23;20559;-86
2022/03/18 21:48:25;;;;;;;54.67;37.50;;;9.10;99.90;;;;;;6204556;23;20254;-86
2022/03/18 21:53:52;;;;;;;48.00;32.22;;;9.10;99.90;;;;;;6198442;23;20175;-87
2022/03/18 21:56:19;;;;;;;53.55;38.90;;;9.00;99.90;;;;;;6200234;23;20209;-86
2022/03/18 21:58:49;;;;;;;64.88;39.15;;;9.00;99.90;;;;;;6199882;23;20189;-86
2022/03/18 22:01:18;;;;;;;56.15;35.40;;;8.90;99.90;;;;;;6196147;23;20253;-86
2022/03/18 22:03:47;;;;;;;52.70;36.00;;;9.00;99.90;;;;;;6196230;23;20190;-86
2022/03/18 22:06:18;;;;;;;53.33;37.58;;;9.00;99.90;;;;;;6198948;23;20182;-88
2022/03/18 22:08:48;;;;;;;55.15;38.75;;;9.00;99.90;;;;;;6199994;23;20280;-87
2022/03/18 22:11:16;;;;;;;51.97;36.85;;;8.90;99.90;;;;;;6196911;23;20223;-86
2022/03/18 22:13:43;;;;;;;58.22;40.30;;;9.00;99.90;;;;;;6195127;23;20186;-86
2022/03/18 22:16:10;;;;;;;54.78;36.95;;;8.80;99.90;;;;;;6203200;23;20186;-86
2022/03/18 22:18:37;;;;;;;55.58;35.80;;;8.90;99.90;;;;;;6200730;23;20201;-87
2022/03/18 22:21:04;;;;;;;56.08;35.95;;;8.80;99.90;;;;;;6198240;23;20198;-87
2022/03/18 22:23:52;;;;;;;58.10;37.90;;;8.90;99.90;;;;;;6196485;23;20175;-87
2022/03/18 22:26:19;;;;;;;53.15;35.05;;;8.70;99.90;;;;;;6159038;23;20213;-86
2022/03/18 22:28:49;;;;;;;58.17;36.95;;;8.80;99.90;;;;;;6202973;23;20190;-87
2022/03/18 22:31:18;;;;;;;58.25;37.05;;;8.80;99.90;;;;;;6205503;23;20211;-87
2022/03/18 22:33:47;;;;;;;60.38;39.45;;;8.80;99.90;;;;;;6201458;23;20183;-88
2022/03/18 22:36:14;;;;;;;54.45;37.17;;;8.50;99.90;;;;;;6201941;23;20182;-87
2022/03/18 22:38:59;;;;;;;60.72;38.78;;;8.50;99.90;;;;;;6209279;23;20201;-88
2022/03/18 22:43:58;;;;;;;59.83;39.83;;;8.50;99.90;;;;;;6197536;23;20174;-86
2022/03/18 22:46:33;;;;;;;59.05;39.38;;;8.50;99.90;;;;;;6207083;23;20178;-86
2022/03/18 22:49:03;;;;;;;65.72;38.70;;;8.50;99.90;;;;;;6203479;23;20222;-87
2022/03/18 22:51:33;;;;;;;64.30;39.20;;;8.40;99.90;;;;;;6198687;23;20195;-88
2022/03/18 22:54:00;;;;;;;60.00;39.90;;;8.40;99.90;;;;;;6198290;23;20168;-87
2022/03/18 22:56:58;;;;;;;73.05;44.65;;;8.30;99.90;;;;;;6200282;23;20178;-88
2022/03/18 22:59:38;;;;;;;62.92;42.75;;;8.20;99.90;;;;;;6169445;23;20170;-88
2022/03/18 23:02:08;;;;;;;70.05;44.78;;;8.30;99.90;;;;;;6199109;23;20202;-87
2022/03/18 23:04:37;;;;;;;62.20;40.85;;;8.30;99.90;;;;;;6199525;23;20194;-84
2022/03/18 23:07:18;;;;;;;;;;;;;;;;;;;;;
2022/03/18 23:09:48;;;;;;;67.75;41.83;;;8.20;99.90;;;;;;6209389;23;20200;-87
2022/03/18 23:49:54;;;;;;;;;;;;;;;;;;;;;
